createdAt,value
2022-10-07T00:02:49.200Z,84.23
2022-10-07T00:05:17.490Z,83.76
2022-10-07T00:07:45.299Z,84.14
2022-10-07T00:10:43.379Z,83.72
2022-10-07T00:13:17.116Z,83.76
2022-10-07T00:15:45.007Z,84.00
2022-10-07T00:18:13.092Z,84.22
2022-10-07T00:20:41.259Z,84.29
2022-10-07T00:23:09.409Z,84.36
2022-10-07T00:25:38.066Z,84.06
2022-10-07T00:28:05.491Z,84.14
2022-10-07T00:30:33.291Z,83.70
2022-10-07T00:33:14.651Z,84.05
2022-10-07T00:35:42.951Z,83.83
2022-10-07T00:38:10.933Z,84.48
2022-10-07T00:40:41.509Z,83.74
2022-10-07T00:43:30.101Z,84.19
2022-10-07T00:46:29.505Z,83.71
2022-10-07T00:49:00.897Z,84.21
2022-10-07T00:51:31.241Z,84.29
2022-10-07T00:54:06.398Z,84.10
2022-10-07T00:56:35.027Z,84.62
2022-10-07T00:59:09.109Z,84.37
2022-10-07T01:01:37.222Z,84.21
2022-10-07T01:04:13.305Z,84.27
2022-10-07T01:07:07.154Z,84.40
2022-10-07T01:09:35.319Z,84.39
2022-10-07T01:12:11.421Z,83.93
2022-10-07T01:15:01.886Z,84.98
2022-10-07T01:18:04.212Z,84.97
2022-10-07T01:20:40.958Z,84.91
2022-10-07T01:23:17.900Z,85.19
2022-10-07T01:25:59.300Z,85.22
2022-10-07T01:28:39.015Z,84.81
2022-10-07T01:31:10.443Z,85.02
2022-10-07T01:34:05.103Z,84.80
2022-10-07T01:36:37.080Z,84.80
2022-10-07T01:39:16.325Z,84.80
2022-10-07T01:41:45.124Z,84.94
2022-10-07T01:44:13.953Z,84.98
2022-10-07T01:46:43.614Z,84.93
2022-10-07T01:52:26.312Z,84.94
2022-10-07T01:55:28.408Z,85.07
2022-10-07T01:58:23.210Z,84.90
2022-10-07T02:01:04.090Z,85.15
2022-10-07T02:03:38.935Z,85.25
2022-10-07T02:06:13.591Z,85.01
2022-10-07T02:08:49.008Z,84.53
2022-10-07T02:11:21.726Z,85.27
2022-10-07T02:14:03.430Z,84.76
2022-10-07T02:16:39.958Z,84.72
2022-10-07T02:22:29.392Z,85.15
2022-10-07T02:24:59.280Z,85.12
2022-10-07T02:27:37.756Z,85.38
2022-10-07T02:30:11.935Z,85.16
2022-10-07T02:32:51.911Z,85.17
2022-10-07T02:35:51.159Z,85.22
2022-10-07T02:38:19.387Z,84.96
2022-10-07T02:41:35.395Z,84.97
2022-10-07T02:44:37.778Z,85.40
2022-10-07T02:47:16.311Z,85.23
2022-10-07T02:49:48.672Z,84.99
2022-10-07T02:52:19.679Z,85.40
2022-10-07T02:55:00.223Z,85.37
2022-10-07T02:57:40.894Z,84.79
2022-10-07T03:00:15.773Z,85.00
2022-10-07T03:03:09.207Z,84.98
2022-10-07T03:05:47.085Z,84.99
2022-10-07T03:08:21.811Z,85.08
2022-10-07T03:10:51.100Z,85.03
2022-10-07T03:13:19.649Z,84.97
2022-10-07T03:15:58.072Z,85.38
2022-10-07T03:18:34.924Z,84.80
2022-10-07T03:21:16.360Z,84.59
2022-10-07T03:23:49.901Z,84.82
2022-10-07T03:26:17.549Z,84.66
2022-10-07T03:29:11.230Z,85.15
2022-10-07T03:31:42.382Z,84.29
2022-10-07T03:34:34.948Z,84.22
2022-10-07T03:37:14.593Z,84.95
2022-10-07T03:39:42.961Z,85.54
2022-10-07T03:42:10.868Z,85.13
2022-10-07T03:44:43.988Z,85.41
2022-10-07T03:47:11.136Z,84.93
2022-10-07T03:49:40.187Z,85.09
2022-10-07T03:52:33.128Z,84.20
2022-10-07T03:55:06.017Z,84.58
2022-10-07T03:57:59.906Z,84.56
2022-10-07T04:03:21.004Z,85.00
2022-10-07T04:06:01.499Z,85.28
2022-10-07T04:08:33.570Z,85.29
2022-10-07T04:11:04.122Z,85.29
2022-10-07T04:13:34.134Z,84.76
2022-10-07T04:16:09.958Z,85.59
2022-10-07T04:18:39.989Z,85.19
2022-10-07T04:21:33.485Z,85.34
2022-10-07T04:24:06.082Z,85.07
2022-10-07T04:26:39.958Z,85.16
2022-10-07T04:29:06.973Z,85.35
2022-10-07T04:31:39.058Z,84.75
2022-10-07T04:34:07.666Z,85.07
2022-10-07T04:36:39.121Z,84.52
2022-10-07T04:39:15.044Z,85.24
2022-10-07T04:41:48.992Z,84.95
2022-10-07T04:44:25.080Z,85.58
2022-10-07T04:47:09.594Z,85.23
2022-10-07T04:49:38.957Z,85.23
2022-10-07T04:52:13.861Z,85.46
2022-10-07T04:54:42.914Z,84.57
2022-10-07T04:57:34.907Z,84.85
2022-10-07T05:00:32.022Z,84.98
2022-10-07T05:03:01.185Z,85.14
2022-10-07T05:05:28.976Z,84.82
2022-10-07T05:08:24.473Z,85.17
2022-10-07T05:11:02.484Z,85.27
2022-10-07T05:13:38.411Z,85.18
2022-10-07T05:16:09.723Z,84.44
2022-10-07T05:18:39.558Z,84.12
2022-10-07T05:24:52.675Z,84.41
2022-10-07T05:30:19.977Z,84.63
2022-10-07T05:32:58.637Z,84.84
2022-10-07T05:47:41.062Z,83.64
2022-10-07T05:50:17.141Z,84.55
2022-10-07T06:04:24.877Z,84.24
2022-10-07T06:07:29.280Z,84.33
2022-10-07T06:43:17.055Z,84.48
2022-10-07T06:45:59.568Z,84.15
2022-10-07T06:48:27.542Z,84.17
2022-10-07T06:50:56.372Z,84.46
2022-10-07T06:53:26.086Z,84.68
2022-10-07T06:55:57.815Z,84.39
2022-10-07T06:58:28.113Z,83.69
2022-10-07T07:00:59.595Z,83.88
2022-10-07T07:03:28.326Z,84.32
2022-10-07T07:05:59.481Z,84.48
2022-10-07T07:08:35.517Z,84.10
2022-10-07T07:14:30.525Z,84.17
2022-10-07T07:17:13.923Z,84.11
2022-10-07T07:19:43.114Z,84.20
2022-10-07T07:22:11.530Z,83.85
2022-10-07T07:24:40.928Z,83.87
2022-10-07T07:27:13.874Z,83.80
2022-10-07T07:29:41.574Z,83.73
2022-10-07T07:32:08.908Z,83.84
2022-10-07T07:34:41.292Z,83.72
2022-10-07T07:37:16.012Z,83.67
2022-10-07T07:39:53.088Z,83.84
2022-10-07T07:42:21.856Z,83.87
2022-10-07T07:44:49.406Z,83.59
2022-10-07T07:47:23.345Z,83.65
2022-10-07T07:49:50.983Z,83.56
2022-10-07T07:52:25.595Z,83.58
2022-10-07T07:55:20.964Z,83.63
2022-10-07T07:57:49.368Z,83.34
2022-10-07T08:00:17.339Z,83.38
2022-10-07T08:02:54.999Z,83.05
2022-10-07T08:05:26.869Z,83.25
2022-10-07T08:07:56.837Z,83.51
2022-10-07T08:10:26.879Z,83.45
2022-10-07T08:12:59.856Z,82.76
2022-10-07T08:15:28.915Z,82.63
2022-10-07T08:17:57.241Z,82.96
2022-10-07T08:20:28.999Z,83.14
2022-10-07T08:22:59.011Z,83.45
2022-10-07T08:28:21.289Z,82.61
2022-10-07T08:30:49.468Z,81.11
2022-10-07T08:33:18.289Z,81.53
2022-10-07T08:36:08.592Z,81.88
2022-10-07T08:38:39.124Z,81.21
2022-10-07T08:41:34.387Z,81.74
2022-10-07T08:44:17.997Z,81.70
2022-10-07T08:47:01.175Z,82.51
2022-10-07T08:50:04.298Z,82.00
2022-10-07T08:52:47.240Z,79.88
2022-10-07T08:55:19.610Z,80.01
2022-10-07T08:58:35.584Z,78.17
2022-10-07T09:01:18.780Z,80.03
2022-10-07T09:04:10.543Z,80.39
2022-10-07T09:10:05.964Z,81.66
2022-10-07T09:12:42.014Z,81.12
2022-10-07T09:15:19.147Z,80.79
2022-10-07T09:18:23.820Z,81.35
2022-10-07T09:23:55.590Z,77.77
2022-10-07T09:26:24.994Z,79.37
2022-10-07T09:28:58.101Z,77.57
2022-10-07T09:31:25.155Z,77.82
2022-10-07T09:33:56.889Z,77.00
2022-10-07T09:36:26.815Z,80.02
2022-10-07T09:38:54.980Z,78.60
2022-10-07T09:41:32.066Z,77.70
2022-10-07T09:44:16.393Z,76.70
2022-10-07T09:46:52.469Z,77.09
2022-10-07T09:49:41.671Z,78.20
2022-10-07T09:52:36.056Z,74.32
2022-10-07T09:55:37.497Z,75.74
2022-10-07T09:58:29.400Z,75.03
2022-10-07T10:01:10.830Z,73.60
2022-10-07T10:03:39.020Z,75.48
2022-10-07T10:06:13.158Z,73.11
2022-10-07T10:08:45.714Z,73.05
2022-10-07T10:11:38.615Z,75.34
2022-10-07T10:14:29.564Z,75.53
2022-10-07T10:17:04.818Z,74.38
2022-10-07T10:19:37.089Z,74.64
2022-10-07T10:22:05.666Z,74.86
2022-10-07T10:24:57.540Z,73.60
2022-10-07T11:52:10.935Z,74.55
2022-10-07T11:54:47.509Z,73.72
2022-10-07T12:03:30.661Z,74.00
2022-10-07T12:06:15.443Z,74.38
2022-10-07T12:08:49.175Z,73.82
2022-10-07T12:11:20.059Z,74.24
2022-10-07T12:13:50.867Z,74.39
2022-10-07T12:16:35.060Z,74.18
2022-10-07T12:19:12.130Z,72.86
2022-10-07T13:04:20.545Z,72.46
2022-10-07T13:07:17.321Z,71.27
2022-10-07T13:10:15.799Z,73.08
2022-10-07T13:13:07.479Z,72.49
2022-10-07T13:15:55.820Z,73.04
2022-10-07T13:18:30.486Z,72.27
2022-10-07T13:21:24.904Z,73.19
2022-10-07T13:23:55.444Z,72.81
2022-10-07T13:26:25.517Z,72.32
2022-10-07T13:29:00.910Z,73.38
2022-10-07T13:31:32.176Z,72.83
2022-10-07T15:19:21.597Z,72.67
2022-10-07T15:49:10.646Z,73.46
2022-10-07T16:50:51.860Z,74.41
2022-10-07T16:53:18.974Z,73.31
2022-10-07T16:55:47.753Z,74.73
2022-10-07T17:01:20.606Z,72.51
2022-10-07T17:13:49.127Z,73.82
2022-10-07T17:27:23.574Z,72.92
2022-10-07T17:29:56.429Z,73.19
2022-10-07T17:32:34.954Z,73.00
2022-10-07T17:41:28.612Z,74.00
2022-10-07T17:46:42.975Z,74.08
2022-10-07T17:49:19.795Z,74.19
2022-10-07T17:51:47.404Z,74.90
2022-10-07T18:12:11.870Z,73.24
2022-10-07T18:34:42.508Z,74.20
2022-10-07T19:16:35.538Z,75.87
2022-10-07T19:25:50.168Z,76.55
2022-10-07T19:28:21.970Z,75.63
2022-10-07T19:30:55.192Z,75.23
2022-10-07T19:33:24.705Z,76.38
2022-10-07T19:35:55.249Z,76.31
2022-10-07T19:38:27.225Z,76.71
2022-10-07T19:41:24.776Z,77.00
2022-10-07T19:43:58.703Z,76.71
2022-10-07T19:46:28.959Z,77.06
2022-10-07T19:51:46.876Z,76.83
2022-10-07T19:54:15.242Z,77.17
2022-10-07T19:56:45.528Z,77.54
2022-10-07T19:59:55.511Z,76.97
2022-10-07T20:02:23.923Z,76.76
2022-10-07T20:11:38.968Z,77.81
2022-10-07T20:14:07.077Z,77.96
2022-10-07T20:16:35.062Z,77.75
2022-10-07T20:19:06.786Z,78.02
2022-10-07T20:21:38.576Z,76.69
2022-10-07T20:24:14.300Z,78.13
2022-10-07T20:26:44.229Z,78.22
2022-10-07T20:29:11.973Z,78.27
2022-10-07T20:31:41.296Z,78.30
2022-10-07T20:34:23.791Z,78.17
2022-10-07T20:36:51.135Z,78.46
2022-10-07T20:39:38.772Z,78.37
2022-10-07T20:42:22.385Z,78.37
2022-10-07T20:53:10.746Z,78.90
2022-10-07T20:58:25.550Z,78.72
2022-10-07T21:00:52.963Z,79.13
2022-10-07T21:11:31.067Z,79.40
2022-10-07T21:19:32.562Z,79.38
2022-10-07T21:22:25.889Z,78.56
2022-10-07T21:25:19.476Z,78.98
2022-10-07T21:27:46.882Z,79.37
2022-10-07T21:30:15.107Z,79.58
2022-10-07T21:32:43.105Z,79.38
2022-10-07T21:35:11.562Z,79.50
2022-10-07T21:37:38.832Z,79.56
2022-10-07T21:40:07.669Z,79.03
2022-10-07T21:42:35.055Z,80.05
2022-10-07T21:45:04.131Z,79.84
2022-10-07T21:47:31.509Z,79.65
2022-10-07T21:49:58.861Z,79.01
2022-10-07T21:52:27.181Z,79.77
2022-10-07T21:55:18.906Z,79.46
2022-10-07T21:57:47.022Z,78.64
2022-10-07T22:00:16.135Z,79.59
2022-10-07T22:02:43.086Z,79.47
2022-10-07T22:05:11.791Z,79.48
2022-10-07T22:07:58.047Z,79.79
2022-10-07T22:10:25.176Z,79.97
2022-10-07T22:12:53.921Z,80.38
2022-10-07T22:15:27.071Z,79.91
2022-10-07T22:17:56.778Z,80.21
2022-10-07T22:20:30.042Z,80.05
2022-10-07T22:22:59.984Z,80.32
2022-10-07T22:28:20.696Z,80.33
2022-10-07T22:30:49.028Z,80.24
2022-10-07T22:33:16.923Z,80.36
2022-10-07T22:36:11.528Z,80.25
2022-10-07T22:38:42.859Z,80.42
2022-10-07T22:41:14.232Z,80.03
2022-10-07T22:43:44.781Z,80.21
2022-10-07T22:46:17.580Z,80.55
2022-10-07T22:48:48.693Z,80.64
2022-10-07T22:54:13.933Z,80.71
2022-10-07T22:56:42.649Z,80.67
2022-10-07T23:02:10.800Z,81.06
2022-10-07T23:04:39.158Z,80.85
2022-10-07T23:07:07.266Z,80.78
2022-10-07T23:09:34.929Z,81.12
2022-10-07T23:12:04.931Z,81.16
2022-10-07T23:14:33.381Z,81.37
2022-10-07T23:17:07.689Z,81.13
2022-10-07T23:19:35.772Z,81.63
2022-10-07T23:22:28.136Z,81.43
2022-10-07T23:24:55.302Z,81.80
2022-10-07T23:27:33.995Z,81.39
2022-10-07T23:30:05.858Z,81.68
2022-10-07T23:32:34.081Z,82.12
2022-10-07T23:35:00.856Z,81.67
2022-10-07T23:37:29.172Z,82.01
2022-10-07T23:40:01.647Z,81.84
2022-10-07T23:42:29.711Z,82.38
2022-10-07T23:44:57.541Z,82.01
2022-10-07T23:47:24.856Z,81.62
2022-10-07T23:52:45.314Z,81.69
2022-10-07T23:55:13.151Z,81.79
2022-10-07T23:57:41.053Z,81.80
